Time;durP1;ratioP1;P1;durP2;ratioP2;P2;SDS_P1;SDS_P2;PMS_P1;PMS_P2;Temp;Humidity;BMP_temperature;BMP_pressure;BME280_temperature;BME280_humidity;BME280_pressure;Samples;Min_cycle;Max_cycle;Signal;HPM_P1;HPM_P2
2024/04/23 00:01:31;;;;;;;;;;;3.50;99.90;;;;;;5438333;26;19940;-76
2024/04/23 00:03:58;;;;;;;;;;;3.50;99.90;;;;;;5422546;26;19971;-76
2024/04/23 00:06:24;;;;;;;;;;;3.50;99.90;;;;;;5458243;26;19928;-76
2024/04/23 00:08:51;;;;;;;;;;;3.50;99.90;;;;;;5486240;26;19952;-76
2024/04/23 00:11:18;;;;;;;;;;;3.50;99.90;;;;;;5489334;26;20343;-76
2024/04/23 00:13:45;;;;;;;;;;;3.40;99.90;;;;;;5486081;26;19960;-76
2024/04/23 00:16:12;;;;;;;;;;;3.40;99.90;;;;;;5452404;26;19936;-76
2024/04/23 00:18:39;;;;;;;;;;;3.40;99.90;;;;;;5445981;26;19953;-76
2024/04/23 00:21:05;;;;;;;;;;;3.30;99.90;;;;;;5446767;26;19936;-75
2024/04/23 00:23:33;;;;;;;;;;;3.30;99.90;;;;;;5416703;26;19929;-76
2024/04/23 00:26:00;;;;;;;;;;;3.20;99.90;;;;;;5386868;26;19939;-76
2024/04/23 00:28:27;;;;;;;;;;;3.20;99.90;;;;;;5385717;26;19995;-76
2024/04/23 00:30:54;;;;;;;;;;;3.20;99.90;;;;;;5399445;26;19929;-76
2024/04/23 00:33:20;;;;;;;;;;;3.20;99.90;;;;;;5412560;26;19933;-76
2024/04/23 00:35:47;;;;;;;;;;;3.20;99.90;;;;;;5454153;26;19929;-76
2024/04/23 00:38:14;;;;;;;;;;;3.20;99.90;;;;;;5444543;26;20266;-76
2024/04/23 00:40:41;;;;;;;;;;;3.20;99.90;;;;;;5436346;26;20507;-76
2024/04/23 00:43:07;;;;;;;;;;;3.20;99.90;;;;;;5441374;26;19936;-76
2024/04/23 00:45:36;;;;;;;;;;;3.20;99.90;;;;;;5443724;26;20361;-76
2024/04/23 00:48:03;;;;;;;;;;;3.10;99.90;;;;;;5475983;26;19929;-76
2024/04/23 00:50:30;;;;;;;;;;;3.00;99.90;;;;;;5476274;26;20012;-76
2024/04/23 00:52:56;;;;;;;;;;;3.00;99.90;;;;;;5468475;26;20000;-77
2024/04/23 00:55:23;;;;;;;;;;;3.00;99.90;;;;;;5449162;26;20413;-76
2024/04/23 00:57:49;;;;;;;;;;;3.00;99.90;;;;;;5443515;26;19936;-76
2024/04/23 01:00:16;;;;;;;;;;;2.90;99.90;;;;;;5476299;26;19929;-76
2024/04/23 01:02:43;;;;;;;;;;;2.90;99.90;;;;;;5513077;26;19956;-76
2024/04/23 01:05:08;;;;;;;;;;;2.90;99.90;;;;;;5452391;26;19940;-76
2024/04/23 01:07:35;;;;;;;;;;;2.80;99.90;;;;;;5470009;26;20303;-76
2024/04/23 01:10:02;;;;;;;;;;;2.80;99.90;;;;;;5476034;26;19953;-76
2024/04/23 01:12:29;;;;;;;;;;;2.80;99.90;;;;;;5408516;26;19935;-76
2024/04/23 01:14:56;;;;;;;;;;;2.80;99.90;;;;;;5450501;26;19940;-76
2024/04/23 01:17:23;;;;;;;;;;;2.80;99.90;;;;;;5430509;26;19927;-75
2024/04/23 01:19:52;;;;;;;;;;;2.70;99.90;;;;;;5466268;26;20253;-77
2024/04/23 01:22:53;;;;;;;;;;;2.70;99.90;;;;;;5451392;26;19994;-75
2024/04/23 01:25:20;;;;;;;;;;;2.70;99.90;;;;;;5433684;26;20048;-75
2024/04/23 01:27:46;;;;;;;;;;;2.70;99.90;;;;;;5390101;26;19928;-75
2024/04/23 01:30:12;;;;;;;;;;;2.70;99.90;;;;;;5372756;26;19929;-75
2024/04/23 01:32:38;;;;;;;;;;;2.70;99.90;;;;;;5390641;26;19939;-75
2024/04/23 01:35:05;;;;;;;;;;;2.70;99.90;;;;;;5386988;26;19928;-75
2024/04/23 01:37:32;;;;;;;;;;;2.70;99.90;;;;;;5384006;26;19937;-75
2024/04/23 01:39:59;;;;;;;;;;;2.70;99.90;;;;;;5356939;26;19930;-76
2024/04/23 01:42:25;;;;;;;;;;;2.70;99.90;;;;;;5357923;26;20000;-76
2024/04/23 01:44:52;;;;;;;;;;;2.70;99.90;;;;;;5393653;26;20300;-76
2024/04/23 01:47:18;;;;;;;;;;;2.70;99.90;;;;;;5349431;26;19929;-77
2024/04/23 01:49:45;;;;;;;;;;;2.70;99.90;;;;;;5417070;26;19929;-75
2024/04/23 01:52:12;;;;;;;;;;;2.70;99.90;;;;;;5390987;26;19936;-75
2024/04/23 01:54:38;;;;;;;;;;;2.70;99.90;;;;;;5364365;26;19969;-75
2024/04/23 01:57:06;;;;;;;;;;;2.70;99.90;;;;;;5393301;26;19928;-75
2024/04/23 01:59:33;;;;;;;;;;;2.70;99.90;;;;;;5400698;26;19932;-76
2024/04/23 02:02:00;;;;;;;;;;;2.70;99.90;;;;;;5460371;26;20399;-76
2024/04/23 02:04:27;;;;;;;;;;;2.60;99.90;;;;;;5454575;26;19935;-76
2024/04/23 02:06:54;;;;;;;;;;;2.60;99.90;;;;;;5469712;26;19993;-76
2024/04/23 02:09:21;;;;;;;;;;;2.60;99.90;;;;;;5498274;26;19936;-76
2024/04/23 02:11:52;;;;;;;;;;;2.60;99.90;;;;;;5482207;26;19928;-75
2024/04/23 02:14:19;;;;;;;;;;;2.60;99.90;;;;;;5511827;26;19936;-76
2024/04/23 02:16:45;;;;;;;;;;;2.60;99.90;;;;;;5455532;26;19928;-76
2024/04/23 02:19:12;;;;;;;;;;;2.50;99.90;;;;;;5450151;26;20344;-75
2024/04/23 02:21:39;;;;;;;;;;;2.60;99.90;;;;;;5496149;26;19928;-77
2024/04/23 02:24:06;;;;;;;;;;;2.50;99.90;;;;;;5510919;26;19960;-76
2024/04/23 02:26:31;;;;;;;;;;;2.50;99.90;;;;;;5459645;26;19932;-76
2024/04/23 02:28:58;;;;;;;;;;;2.40;99.90;;;;;;5492308;26;19938;-76
2024/04/23 02:31:25;;;;;;;;;;;2.40;99.90;;;;;;5465016;26;19938;-76
2024/04/23 02:33:51;;;;;;;;;;;2.40;99.90;;;;;;5472331;25;19928;-75
2024/04/23 02:36:18;;;;;;;;;;;2.30;99.90;;;;;;5463341;26;19934;-76
2024/04/23 02:38:45;;;;;;;;;;;2.30;99.90;;;;;;5466286;26;19939;-76
2024/04/23 02:41:12;;;;;;;;;;;2.30;99.90;;;;;;5445385;26;19928;-76
2024/04/23 02:43:38;;;;;;;;;;;2.40;99.90;;;;;;5428561;26;19990;-76
2024/04/23 02:46:05;;;;;;;;;;;2.30;99.90;;;;;;5489740;26;19932;-76
2024/04/23 02:48:32;;;;;;;;;;;2.30;99.90;;;;;;5494262;26;19927;-76
2024/04/23 02:50:59;;;;;;;;;;;2.30;99.90;;;;;;5465969;26;19937;-76
2024/04/23 02:53:25;;;;;;;;;;;2.30;99.90;;;;;;5527429;26;20344;-77
2024/04/23 02:55:52;;;;;;;;;;;2.20;99.90;;;;;;5497263;26;19927;-76
2024/04/23 02:58:19;;;;;;;;;;;2.20;99.90;;;;;;5467438;26;19927;-77
2024/04/23 03:00:46;;;;;;;;;;;2.10;99.90;;;;;;5497139;26;19927;-76
2024/04/23 03:03:12;;;;;;;;;;;2.00;99.90;;;;;;5435988;26;19992;-76
2024/04/23 03:05:39;;;;;;;;;;;2.00;99.90;;;;;;5437197;26;19934;-76
2024/04/23 03:08:06;;;;;;;;;;;2.10;99.90;;;;;;5460922;26;19935;-76
2024/04/23 03:10:33;;;;;;;;;;;2.10;99.90;;;;;;5503817;26;19927;-76
2024/04/23 03:13:00;;;;;;;;;;;2.10;99.90;;;;;;5497310;26;19928;-77
2024/04/23 03:15:27;;;;;;;;;;;2.00;99.90;;;;;;5488941;26;20643;-76
2024/04/23 03:17:54;;;;;;;;;;;2.00;99.90;;;;;;5490233;26;20360;-76
2024/04/23 03:20:20;;;;;;;;;;;2.00;99.90;;;;;;5491011;26;19930;-76
2024/04/23 03:22:47;;;;;;;;;;;2.00;99.90;;;;;;5458313;26;20242;-77
2024/04/23 03:25:14;;;;;;;;;;;1.90;99.90;;;;;;5429885;26;20260;-77
2024/04/23 03:27:41;;;;;;;;;;;2.00;99.90;;;;;;5485601;26;19928;-76
2024/04/23 03:30:09;;;;;;;;;;;2.00;99.90;;;;;;5490340;26;20345;-77
2024/04/23 03:32:36;;;;;;;;;;;2.00;99.90;;;;;;5485427;26;19928;-76
2024/04/23 03:35:03;;;;;;;;;;;2.00;99.90;;;;;;5489917;26;20344;-76
2024/04/23 03:37:28;;;;;;;;;;;2.00;99.90;;;;;;5429883;26;19997;-76
2024/04/23 03:39:55;;;;;;;;;;;2.00;99.90;;;;;;5488234;26;19940;-76
2024/04/23 03:42:21;;;;;;;;;;;2.00;99.90;;;;;;5483559;26;19936;-77
2024/04/23 03:44:48;;;;;;;;;;;2.00;99.90;;;;;;5475599;26;19948;-77
2024/04/23 03:47:15;;;;;;;;;;;2.00;99.90;;;;;;5451063;26;19994;-76
2024/04/23 03:49:41;;;;;;;;;;;2.10;99.90;;;;;;5484131;26;19951;-77
2024/04/23 03:52:08;;;;;;;;;;;2.10;99.90;;;;;;5478765;26;20237;-77
2024/04/23 03:54:35;;;;;;;;;;;2.10;99.90;;;;;;5422181;26;19936;-76
2024/04/23 03:57:02;;;;;;;;;;;2.00;99.90;;;;;;5423744;26;19928;-76
2024/04/23 03:59:29;;;;;;;;;;;2.00;99.90;;;;;;5478479;26;19928;-78
2024/04/23 04:07:29;;;;;;;;;;;2.00;99.90;;;;;;5477054;26;19932;-76
2024/04/23 04:09:56;;;;;;;;;;;2.00;99.90;;;;;;5453398;26;19956;-77
2024/04/23 04:12:23;;;;;;;;;;;2.00;99.90;;;;;;5453948;26;19927;-79
2024/04/23 04:14:51;;;;;;;;;;;2.00;99.90;;;;;;5451997;26;19934;-78
2024/04/23 04:17:17;;;;;;;;;;;2.00;99.90;;;;;;5445940;26;19956;-79
2024/04/23 04:19:44;;;;;;;;;;;2.00;99.90;;;;;;5476393;26;19999;-78
2024/04/23 04:22:12;;;;;;;;;;;2.00;99.90;;;;;;5454602;26;19979;-79
2024/04/23 04:24:39;;;;;;;;;;;2.00;99.90;;;;;;5437556;26;19948;-79
2024/04/23 04:27:05;;;;;;;;;;;2.00;99.90;;;;;;5452946;26;19929;-78
2024/04/23 04:29:32;;;;;;;;;;;2.00;99.90;;;;;;5452697;26;19940;-76
2024/04/23 04:31:59;;;;;;;;;;;1.90;99.90;;;;;;5416832;26;20404;-76
2024/04/23 04:34:26;;;;;;;;;;;1.90;99.90;;;;;;5418516;26;19929;-78
2024/04/23 04:36:53;;;;;;;;;;;1.90;99.90;;;;;;5457660;26;19936;-77
2024/04/23 04:39:19;;;;;;;;;;;1.90;99.90;;;;;;5479959;26;19928;-77
2024/04/23 04:41:46;;;;;;;;;;;1.90;99.90;;;;;;5481617;26;19929;-76
2024/04/23 04:44:13;;;;;;;;;;;1.90;99.90;;;;;;5415067;26;19961;-77
2024/04/23 04:46:40;;;;;;;;;;;1.90;99.90;;;;;;5392827;26;19929;-76
2024/04/23 04:49:07;;;;;;;;;;;1.90;99.90;;;;;;5421381;26;19995;-77
2024/04/23 04:51:34;;;;;;;;;;;1.80;99.90;;;;;;5451546;26;19939;-77
2024/04/23 04:54:01;;;;;;;;;;;1.80;99.90;;;;;;5459685;26;19940;-77
2024/04/23 04:56:28;;;;;;;;;;;1.80;99.90;;;;;;5416630;26;19939;-76
2024/04/23 04:58:55;;;;;;;;;;;1.70;99.90;;;;;;5389174;26;19929;-78
2024/04/23 05:01:22;;;;;;;;;;;1.80;99.90;;;;;;5475667;26;20347;-76
2024/04/23 05:03:49;;;;;;;;;;;1.80;99.90;;;;;;5451706;26;19935;-76
2024/04/23 05:06:16;;;;;;;;;;;1.90;99.90;;;;;;5452297;26;19936;-77
2024/04/23 05:08:41;;;;;;;;;;;1.90;99.90;;;;;;5452150;26;19928;-76
2024/04/23 05:11:08;;;;;;;;;;;2.00;99.90;;;;;;5422106;26;19935;-77
2024/04/23 05:13:35;;;;;;;;;;;2.00;99.90;;;;;;5415501;26;19937;-77
2024/04/23 05:16:02;;;;;;;;;;;2.00;99.90;;;;;;5416290;26;19929;-77
2024/04/23 05:18:29;;;;;;;;;;;2.00;99.90;;;;;;5437327;26;19929;-76
2024/04/23 05:20:55;;;;;;;;;;;2.00;99.90;;;;;;5447867;26;19929;-76
2024/04/23 05:23:22;;;;;;;;;;;2.00;99.90;;;;;;5442715;26;19929;-76
2024/04/23 05:25:49;;;;;;;;;;;2.00;99.90;;;;;;5476954;26;19929;-76
2024/04/23 05:28:16;;;;;;;;;;;2.10;99.90;;;;;;5458430;26;20009;-76
2024/04/23 05:33:30;;;;;;;;;;;2.10;99.90;;;;;;5487147;26;19935;-76
2024/04/23 05:35:56;;;;;;;;;;;2.10;99.90;;;;;;5473985;26;20245;-76
2024/04/23 05:38:27;;;;;;;;;;;2.10;99.90;;;;;;5444462;26;20365;-76
2024/04/23 05:40:55;;;;;;;;;;;2.20;99.90;;;;;;5475879;26;20336;-76
2024/04/23 05:43:22;;;;;;;;;;;2.20;99.90;;;;;;5466207;26;19936;-76
2024/04/23 05:45:49;;;;;;;;;;;2.20;99.90;;;;;;5415587;26;19929;-77
2024/04/23 05:48:34;;;;;;;;;;;2.20;99.90;;;;;;5415373;26;19936;-77
2024/04/23 05:51:20;;;;;;;;;;;2.30;99.90;;;;;;5478298;26;19929;-76
2024/04/23 05:54:06;;;;;;;;;;;2.40;99.90;;;;;;5435513;26;19939;-77
2024/04/23 05:56:32;;;;;;;;;;;2.40;99.90;;;;;;5443595;26;20250;-77
2024/04/23 05:58:59;;;;;;;;;;;2.40;99.90;;;;;;5445189;26;20362;-77
2024/04/23 06:01:26;;;;;;;;;;;2.40;99.90;;;;;;5469324;26;19994;-77
2024/04/23 06:03:52;;;;;;;;;;;2.50;99.90;;;;;;5461482;26;19928;-77
2024/04/23 06:06:19;;;;;;;;;;;2.60;99.90;;;;;;5480976;26;19936;-77
2024/04/23 06:08:47;;;;;;;;;;;2.60;99.90;;;;;;5503756;26;19941;-77
2024/04/23 06:11:13;;;;;;;;;;;2.70;99.90;;;;;;5415566;26;19936;-76
2024/04/23 06:13:46;;;;;;;;;;;2.70;99.90;;;;;;5450201;26;19936;-77
2024/04/23 06:16:13;;;;;;;;;;;2.80;99.90;;;;;;5477432;26;19936;-77
2024/04/23 06:18:42;;;;;;;;;;;2.90;99.90;;;;;;5511296;26;19994;-77
2024/04/23 06:21:13;;;;;;;;;;;2.90;99.90;;;;;;5448336;26;19929;-77
2024/04/23 06:23:40;;;;;;;;;;;3.00;99.90;;;;;;5465587;26;20238;-77
2024/04/23 06:26:07;;;;;;;;;;;3.00;99.90;;;;;;5422884;26;19998;-77
2024/04/23 06:28:36;;;;;;;;;;;3.10;99.90;;;;;;5481991;26;19961;-77
2024/04/23 06:31:02;;;;;;;;;;;3.10;99.90;;;;;;5482900;26;19936;-77
2024/04/23 06:33:29;;;;;;;;;;;3.10;99.90;;;;;;5490734;26;20305;-77
2024/04/23 06:35:56;;;;;;;;;;;3.20;99.90;;;;;;5456874;26;19929;-77
2024/04/23 06:38:23;;;;;;;;;;;3.30;99.90;;;;;;5478579;26;19928;-77
2024/04/23 06:40:50;;;;;;;;;;;3.30;99.90;;;;;;5478573;26;19929;-77
2024/04/23 06:43:17;;;;;;;;;;;3.40;99.90;;;;;;5424274;26;19929;-77
2024/04/23 06:45:44;;;;;;;;;;;3.40;99.90;;;;;;5423977;26;19935;-77
2024/04/23 06:48:15;;;;;;;;;;;3.50;99.90;;;;;;5429276;26;20352;-77
2024/04/23 06:50:42;;;;;;;;;;;3.50;99.90;;;;;;5417559;26;19979;-77
2024/04/23 06:53:09;;;;;;;;;;;3.60;99.90;;;;;;5446710;26;19940;-78
2024/04/23 06:55:35;;;;;;;;;;;3.60;99.90;;;;;;5438911;26;19929;-77
2024/04/23 06:58:02;;;;;;;;;;;3.70;99.90;;;;;;5423349;26;19928;-77
2024/04/23 07:00:29;;;;;;;;;;;3.70;99.90;;;;;;5424087;26;19956;-77
2024/04/23 07:02:55;;;;;;;;;;;3.90;99.90;;;;;;5511463;26;19961;-78
2024/04/23 07:05:22;;;;;;;;;;;3.90;99.90;;;;;;5454024;26;19929;-77
2024/04/23 07:07:47;;;;;;;;;;;4.00;99.90;;;;;;5484118;26;20010;-78
2024/04/23 07:10:14;;;;;;;;;;;4.10;99.90;;;;;;5443846;26;19929;-77
2024/04/23 07:12:41;;;;;;;;;;;4.20;99.90;;;;;;5388836;26;19957;-77
2024/04/23 07:15:08;;;;;;;;;;;4.20;99.90;;;;;;5406805;26;19928;-77
2024/04/23 07:17:37;;;;;;;;;;;4.30;99.90;;;;;;5454684;26;20430;-77
2024/04/23 07:20:04;;;;;;;;;;;4.30;99.90;;;;;;5482967;26;19933;-79
2024/04/23 07:22:31;;;;;;;;;;;4.40;99.90;;;;;;5448476;26;19940;-77
2024/04/23 07:24:58;;;;;;;;;;;4.50;99.90;;;;;;5482047;26;19928;-77
2024/04/23 07:27:24;;;;;;;;;;;4.50;99.90;;;;;;5421770;26;19928;-77
2024/04/23 07:29:51;;;;;;;;;;;4.60;99.90;;;;;;5484920;26;19936;-77
2024/04/23 07:32:18;;;;;;;;;;;4.60;99.90;;;;;;5484163;26;19943;-77
2024/04/23 07:34:45;;;;;;;;;;;4.70;99.90;;;;;;5453706;26;19937;-78
2024/04/23 07:37:12;;;;;;;;;;;4.80;99.90;;;;;;5460223;26;19931;-77
2024/04/23 07:39:39;;;;;;;;;;;4.90;99.90;;;;;;5479342;26;19929;-77
2024/04/23 07:42:06;;;;;;;;;;;4.90;99.90;;;;;;5448656;26;19933;-77
2024/04/23 07:44:32;;;;;;;;;;;4.90;99.90;;;;;;5422925;26;19933;-78
2024/04/23 07:46:59;;;;;;;;;;;5.00;99.90;;;;;;5477806;26;19928;-77
2024/04/23 07:49:26;;;;;;;;;;;5.10;99.90;;;;;;5367145;26;19979;-78
2024/04/23 07:51:53;;;;;;;;;;;5.10;99.90;;;;;;5459275;26;19994;-78
2024/04/23 07:54:20;;;;;;;;;;;5.20;99.90;;;;;;5454778;26;19940;-77
2024/04/23 07:56:47;;;;;;;;;;;5.20;99.90;;;;;;5480068;26;20361;-78
2024/04/23 07:59:14;;;;;;;;;;;5.30;99.90;;;;;;5422429;26;19955;-78
2024/04/23 08:01:40;;;;;;;;;;;5.40;99.90;;;;;;5432991;26;19929;-77
2024/04/23 08:04:07;;;;;;;;;;;5.50;99.90;;;;;;5478715;26;20328;-79
2024/04/23 08:06:35;;;;;;;;;;;5.50;99.90;;;;;;5480170;26;19933;-78
2024/04/23 08:09:02;;;;;;;;;;;5.50;99.90;;;;;;5415602;26;20246;-77
2024/04/23 08:11:29;;;;;;;;;;;5.60;99.90;;;;;;5366932;26;19929;-77
2024/04/23 08:13:56;;;;;;;;;;;5.70;99.90;;;;;;5472981;26;19935;-76
2024/04/23 08:16:23;;;;;;;;;;;5.70;99.90;;;;;;5444290;26;19929;-77
2024/04/23 08:18:49;;;;;;;;;;;5.80;99.90;;;;;;5482341;26;19936;-76
2024/04/23 08:21:16;;;;;;;;;;;5.90;99.90;;;;;;5435005;26;19933;-77
2024/04/23 08:23:43;;;;;;;;;;;5.90;99.90;;;;;;5428234;26;19936;-78
2024/04/23 08:26:14;;;;;;;;;;;5.90;99.90;;;;;;5477958;26;19953;-76
2024/04/23 08:28:43;;;;;;;;;;;5.90;99.90;;;;;;5429414;26;19936;-77
2024/04/23 08:31:10;;;;;;;;;;;6.00;99.90;;;;;;5438955;26;19928;-77
2024/04/23 08:33:42;;;;;;;;;;;6.10;99.90;;;;;;5453579;26;19955;-76
2024/04/23 08:36:11;;;;;;;;;;;6.20;99.90;;;;;;5451159;26;20410;-76
2024/04/23 08:38:38;;;;;;;;;;;6.30;99.90;;;;;;5387823;26;20234;-78
2024/04/23 08:41:05;;;;;;;;;;;6.40;99.90;;;;;;5437906;26;19928;-76
2024/04/23 08:43:36;;;;;;;;;;;6.40;99.90;;;;;;5417773;26;19929;-77
2024/04/23 08:46:03;;;;;;;;;;;6.40;99.90;;;;;;5400195;26;19928;-77
2024/04/23 08:48:30;;;;;;;;;;;6.50;99.90;;;;;;5443976;26;19975;-77
2024/04/23 08:50:57;;;;;;;;;;;6.60;99.90;;;;;;5510353;26;20574;-77
2024/04/23 08:53:24;;;;;;;;;;;6.60;99.90;;;;;;5497295;26;19935;-78
2024/04/23 08:55:52;;;;;;;;;;;6.60;99.90;;;;;;5476421;26;20356;-77
2024/04/23 08:58:19;;;;;;;;;;;6.70;99.90;;;;;;5490350;26;19928;-77
2024/04/23 09:00:47;;;;;;;;;;;6.90;99.90;;;;;;5513318;26;19928;-77
2024/04/23 09:03:14;;;;;;;;;;;7.00;99.90;;;;;;5505878;26;19968;-78
2024/04/23 09:05:41;;;;;;;;;;;7.10;99.90;;;;;;5455386;26;20041;-75
2024/04/23 09:08:08;;;;;;;;;;;7.10;99.90;;;;;;5476497;26;19929;-76
2024/04/23 09:10:35;;;;;;;;;;;7.10;99.90;;;;;;5445889;26;19936;-76
2024/04/23 09:13:00;;;;;;;;;;;7.10;99.90;;;;;;5513348;25;19993;-76
2024/04/23 09:15:28;;;;;;;;;;;7.00;99.90;;;;;;5448787;26;19936;-76
2024/04/23 09:17:55;;;;;;;;;;;7.00;99.90;;;;;;5437583;26;19936;-76
2024/04/23 09:20:23;;;;;;;;;;;7.00;99.90;;;;;;5468103;26;19928;-77
2024/04/23 09:22:53;;;;;;;;;;;7.00;99.90;;;;;;5459188;26;19935;-77
2024/04/23 09:25:20;;;;;;;;;;;7.00;99.90;;;;;;5488074;26;19970;-76
2024/04/23 09:27:50;;;;;;;;;;;7.00;99.90;;;;;;5444960;26;20369;-77
2024/04/23 09:30:24;;;;;;;;;;;7.00;99.90;;;;;;5473680;26;19936;-76
2024/04/23 09:33:04;;;;;;;;;;;7.00;99.90;;;;;;5487937;26;19966;-76
2024/04/23 09:35:31;;;;;;;;;;;6.90;99.90;;;;;;5514248;26;19931;-77
2024/04/23 09:37:58;;;;;;;;;;;6.90;99.90;;;;;;5486455;26;20425;-78
2024/04/23 09:40:23;;;;;;;;;;;6.90;99.90;;;;;;5452849;26;19937;-77
2024/04/23 09:42:53;;;;;;;;;;;6.90;99.90;;;;;;5477223;26;19960;-76
2024/04/23 09:45:26;;;;;;;;;;;7.00;99.90;;;;;;5455574;26;19936;-77
2024/04/23 09:47:53;;;;;;;;;;;6.90;99.90;;;;;;5461695;26;20076;-76
2024/04/23 09:50:20;;;;;;;;;;;7.00;99.90;;;;;;5485036;26;19952;-76
2024/04/23 09:52:47;;;;;;;;;;;6.90;99.90;;;;;;5397704;26;19929;-76
2024/04/23 09:55:15;;;;;;;;;;;7.00;99.90;;;;;;5483019;26;19928;-77
2024/04/23 09:57:42;;;;;;;;;;;7.00;99.90;;;;;;5464866;26;19939;-77
2024/04/23 10:00:10;;;;;;;;;;;7.00;99.90;;;;;;5483961;26;19974;-78
2024/04/23 10:02:40;;;;;;;;;;;7.00;99.90;;;;;;5486720;26;19935;-77
2024/04/23 10:05:07;;;;;;;;;;;7.10;99.90;;;;;;5486130;26;19929;-77
2024/04/23 10:07:59;;;;;;;;;;;7.10;99.90;;;;;;5506205;26;19956;-77
2024/04/23 10:10:29;;;;;;;;;;;7.10;99.90;;;;;;5389459;26;20527;-77
2024/04/23 10:12:55;;;;;;;;;;;7.20;99.90;;;;;;5371714;26;19929;-77
2024/04/23 10:15:41;;;;;;;;;;;7.30;99.90;;;;;;5353401;26;19935;-77
2024/04/23 10:18:20;;;;;;;;;;;7.40;99.90;;;;;;5397169;26;19928;-77
2024/04/23 10:20:48;;;;;;;;;;;7.50;99.90;;;;;;5395506;26;19928;-77
2024/04/23 10:23:17;;;;;;;;;;;7.70;99.90;;;;;;5382121;26;19929;-78
2024/04/23 10:25:48;;;;;;;;;;;7.80;99.90;;;;;;5328242;26;19995;-77
2024/04/23 10:28:15;;;;;;;;;;;7.80;99.30;;;;;;5393954;26;19928;-77
2024/04/23 10:30:42;;;;;;;;;;;7.60;98.40;;;;;;5376176;26;20006;-77
2024/04/23 10:33:09;;;;;;;;;;;7.60;98.70;;;;;;5408065;26;19932;-78
2024/04/23 10:35:36;;;;;;;;;;;7.70;97.10;;;;;;5360185;26;19936;-77
2024/04/23 10:38:03;;;;;;;;;;;7.80;96.80;;;;;;5371252;26;20357;-78
2024/04/23 10:40:30;;;;;;;;;;;8.00;97.30;;;;;;5383570;26;19949;-77
2024/04/23 10:42:58;;;;;;;;;;;8.20;97.10;;;;;;5401933;26;20246;-78
2024/04/23 10:45:24;;;;;;;;;;;8.30;97.70;;;;;;5389633;26;19929;-77
2024/04/23 10:47:51;;;;;;;;;;;8.30;96.10;;;;;;5388867;26;19935;-77
2024/04/23 10:50:26;;;;;;;;;;;8.10;95.00;;;;;;5418818;26;20016;-77
2024/04/23 10:53:01;;;;;;;;;;;7.90;95.10;;;;;;5417948;26;19937;-77
2024/04/23 10:55:28;;;;;;;;;;;7.90;95.70;;;;;;5418305;26;19936;-77
2024/04/23 10:57:55;;;;;;;;;;;7.90;96.80;;;;;;5423543;26;19936;-77
2024/04/23 11:00:31;;;;;;;;;;;7.90;97.10;;;;;;5410774;26;19933;-77
2024/04/23 11:02:58;;;;;;;;;;;7.90;98.00;;;;;;5353576;26;20263;-77
2024/04/23 11:05:31;;;;;;;;;;;7.90;98.10;;;;;;5383431;26;19937;-77
2024/04/23 11:08:06;;;;;;;;;;;8.00;98.00;;;;;;5383032;26;19930;-77
2024/04/23 11:10:49;;;;;;;;;;;8.30;98.40;;;;;;5382337;26;19954;-78
2024/04/23 11:13:28;;;;;;;;;;;8.60;98.10;;;;;;5383662;26;20277;-77
2024/04/23 11:15:55;;;;;;;;;;;8.70;98.30;;;;;;5353847;26;19936;-77
2024/04/23 11:18:26;;;;;;;;;;;8.70;97.10;;;;;;5399904;26;19996;-78
2024/04/23 11:20:55;;;;;;;;;;;8.60;97.60;;;;;;5463099;26;19945;-77
2024/04/23 11:23:22;;;;;;;;;;;8.60;98.20;;;;;;5442382;26;19937;-77
2024/04/23 11:25:49;;;;;;;;;;;8.50;97.00;;;;;;5411719;26;19930;-77
2024/04/23 11:28:16;;;;;;;;;;;8.50;96.70;;;;;;5432387;26;19936;-77
2024/04/23 11:30:49;;;;;;;;;;;8.40;97.50;;;;;;5385740;26;19933;-77
2024/04/23 11:33:17;;;;;;;;;;;8.40;96.90;;;;;;5424598;26;19936;-77
2024/04/23 11:35:48;;;;;;;;;;;8.40;97.80;;;;;;5416585;26;19935;-78
2024/04/23 11:38:15;;;;;;;;;;;8.30;96.70;;;;;;5384801;26;19929;-76
2024/04/23 11:40:42;;;;;;;;;;;8.30;97.70;;;;;;5477751;26;20022;-76
2024/04/23 11:43:09;;;;;;;;;;;8.30;97.70;;;;;;5388212;26;19935;-77
2024/04/23 11:45:36;;;;;;;;;;;8.30;97.80;;;;;;5418018;26;19974;-76
2024/04/23 11:48:03;;;;;;;;;;;8.30;97.70;;;;;;5432205;26;19930;-77
2024/04/23 11:50:31;;;;;;;;;;;8.30;97.40;;;;;;5447409;26;19979;-78
2024/04/23 11:52:58;;;;;;;;;;;8.30;97.50;;;;;;5447059;26;19935;-76
2024/04/23 11:55:25;;;;;;;;;;;8.20;96.40;;;;;;5381913;26;19930;-77
2024/04/23 11:57:53;;;;;;;;;;;8.30;96.70;;;;;;5381892;26;19930;-76
2024/04/23 12:00:20;;;;;;;;;;;8.30;96.60;;;;;;5381359;26;19942;-77
2024/04/23 12:02:49;;;;;;;;;;;8.40;94.70;;;;;;5415447;26;19929;-77
2024/04/23 12:05:16;;;;;;;;;;;8.60;94.80;;;;;;5447609;26;19929;-76
2024/04/23 12:07:43;;;;;;;;;;;8.70;94.60;;;;;;5460217;26;19929;-77
2024/04/23 12:10:26;;;;;;;;;;;8.60;95.50;;;;;;5417884;26;19936;-79
2024/04/23 12:12:53;;;;;;;;;;;8.70;95.10;;;;;;5417617;26;19929;-78
2024/04/23 12:15:20;;;;;;;;;;;8.60;94.90;;;;;;5417832;26;19937;-77
2024/04/23 12:17:47;;;;;;;;;;;8.50;94.60;;;;;;5412311;26;19936;-77
2024/04/23 12:20:14;;;;;;;;;;;8.50;94.40;;;;;;5393536;26;20356;-77
2024/04/23 12:22:44;;;;;;;;;;;8.40;94.60;;;;;;5422043;26;19928;-79
2024/04/23 12:25:20;;;;;;;;;;;8.40;94.90;;;;;;5422598;26;19943;-79
2024/04/23 12:27:48;;;;;;;;;;;8.40;94.90;;;;;;5422149;26;19935;-78
2024/04/23 12:30:15;;;;;;;;;;;8.40;96.10;;;;;;5422008;26;19929;-78
2024/04/23 12:32:47;;;;;;;;;;;8.50;96.40;;;;;;5461287;26;19928;-79
2024/04/23 12:35:17;;;;;;;;;;;8.50;95.80;;;;;;5458906;26;19928;-79
2024/04/23 12:37:44;;;;;;;;;;;8.30;96.70;;;;;;5489104;26;19996;-78
2024/04/23 12:40:11;;;;;;;;;;;8.20;97.70;;;;;;5489190;26;19931;-78
2024/04/23 12:42:38;;;;;;;;;;;8.10;97.80;;;;;;5452680;26;19936;-79
2024/04/23 12:45:05;;;;;;;;;;;8.10;97.90;;;;;;5398860;26;19934;-80
2024/04/23 12:47:32;;;;;;;;;;;8.10;98.00;;;;;;5451478;26;19940;-77
2024/04/23 12:49:59;;;;;;;;;;;8.10;98.60;;;;;;5405716;26;19937;-77
2024/04/23 12:52:26;;;;;;;;;;;8.20;98.60;;;;;;5423236;26;19936;-79
2024/04/23 12:54:53;;;;;;;;;;;8.10;98.50;;;;;;5423139;26;20357;-78
2024/04/23 12:57:20;;;;;;;;;;;8.10;98.60;;;;;;5407961;26;19944;-78
2024/04/23 12:59:45;;;;;;;;;;;8.10;98.60;;;;;;5458739;26;19928;-79
2024/04/23 13:02:12;;;;;;;;;;;8.20;98.80;;;;;;5453820;26;19935;-79
2024/04/23 13:04:39;;;;;;;;;;;8.20;98.20;;;;;;5460641;26;19928;-80
2024/04/23 13:07:08;;;;;;;;;;;8.30;98.80;;;;;;5496194;26;19928;-80
2024/04/23 13:09:35;;;;;;;;;;;8.30;99.00;;;;;;5495845;26;20347;-77
2024/04/23 13:12:12;;;;;;;;;;;;;;;;;;;;;
2024/04/23 13:14:42;;;;;;;;;;;8.40;98.90;;;;;;5459667;26;19960;-79
2024/04/23 13:17:15;;;;;;;;;;;8.40;99.20;;;;;;5453078;26;19929;-79
2024/04/23 13:19:42;;;;;;;;;;;8.40;98.40;;;;;;5454458;26;20680;-79
2024/04/23 13:22:12;;;;;;;;;;;8.40;97.30;;;;;;5453589;26;19935;-80
2024/04/23 13:24:39;;;;;;;;;;;8.30;97.40;;;;;;5432771;26;20631;-80
2024/04/23 13:27:06;;;;;;;;;;;8.30;97.50;;;;;;5422013;26;19936;-78
2024/04/23 13:29:34;;;;;;;;;;;8.20;97.00;;;;;;5445995;26;19936;-79
2024/04/23 13:32:11;;;;;;;;;;;8.20;97.10;;;;;;5386805;26;19976;-79
2024/04/23 13:34:37;;;;;;;;;;;8.20;96.90;;;;;;5389108;26;19929;-79
2024/04/23 13:37:05;;;;;;;;;;;8.10;96.60;;;;;;5421064;26;20565;-80
2024/04/23 13:39:41;;;;;;;;;;;8.10;96.80;;;;;;5427627;26;19936;-79
2024/04/23 13:42:12;;;;;;;;;;;8.10;97.50;;;;;;5452165;26;20364;-81
2024/04/23 13:44:40;;;;;;;;;;;8.00;97.20;;;;;;5423463;26;19944;-78
2024/04/23 13:47:08;;;;;;;;;;;8.10;97.50;;;;;;5484452;26;20675;-80
2024/04/23 13:49:45;;;;;;;;;;;8.20;96.90;;;;;;5466118;26;19935;-79
2024/04/23 13:52:14;;;;;;;;;;;8.30;97.00;;;;;;5481362;26;20003;-79
2024/04/23 13:54:40;;;;;;;;;;;8.40;97.00;;;;;;5419615;26;19936;-79
2024/04/23 13:57:06;;;;;;;;;;;8.40;97.40;;;;;;5432370;26;19960;-79
2024/04/23 13:59:32;;;;;;;;;;;8.30;96.80;;;;;;5419083;26;19929;-79
2024/04/23 14:02:03;;;;;;;;;;;8.50;97.40;;;;;;5451093;26;20038;-80
2024/04/23 14:04:32;;;;;;;;;;;8.20;96.20;;;;;;5484911;26;19929;-79
2024/04/23 14:06:58;;;;;;;;;;;8.40;96.10;;;;;;5484724;26;20310;-79
2024/04/23 14:09:24;;;;;;;;;;;8.40;96.20;;;;;;5448896;26;20270;-79
2024/04/23 14:11:50;;;;;;;;;;;8.40;96.50;;;;;;5448307;26;19929;-79
2024/04/23 14:14:18;;;;;;;;;;;8.40;95.70;;;;;;5440963;26;19965;-79
2024/04/23 14:16:44;;;;;;;;;;;8.40;96.00;;;;;;5443117;26;19931;-80
2024/04/23 14:19:12;;;;;;;;;;;8.40;96.00;;;;;;5388388;26;19929;-79
2024/04/23 14:21:38;;;;;;;;;;;8.40;96.00;;;;;;5448222;26;19933;-79
2024/04/23 14:24:04;;;;;;;;;;;8.40;96.20;;;;;;5396248;26;19929;-80
2024/04/23 14:26:32;;;;;;;;;;;8.50;96.50;;;;;;5447224;26;19984;-79
2024/04/23 14:29:00;;;;;;;;;;;8.40;96.10;;;;;;5440924;26;19933;-81
2024/04/23 14:31:28;;;;;;;;;;;8.40;96.40;;;;;;5417942;26;19936;-79
2024/04/23 14:33:54;;;;;;;;;;;8.50;96.70;;;;;;5419199;26;19929;-79
2024/04/23 14:36:20;;;;;;;;;;;8.50;96.60;;;;;;5420920;26;19940;-79
2024/04/23 14:38:48;;;;;;;;;;;8.60;96.60;;;;;;5419299;26;19953;-80
2024/04/23 14:41:14;;;;;;;;;;;8.70;97.10;;;;;;5419710;26;19928;-80
2024/04/23 14:43:42;;;;;;;;;;;8.80;96.20;;;;;;5382541;26;19940;-80